createdAt,value
2019-01-25T00:00:24.997Z,2.40
2019-01-25T00:01:25.059Z,2.60
2019-01-25T00:02:24.998Z,2.30
2019-01-25T00:03:24.974Z,2.70
2019-01-25T00:04:24.965Z,2.70
2019-01-25T00:05:24.953Z,2.80
2019-01-25T00:06:24.973Z,2.80
2019-01-25T00:07:25.328Z,2.90
2019-01-25T00:08:24.926Z,2.80
2019-01-25T00:09:24.912Z,2.50
2019-01-25T00:10:24.919Z,2.40
2019-01-25T00:11:24.948Z,2.80
2019-01-25T00:12:24.891Z,2.60
2019-01-25T00:13:24.884Z,2.70
2019-01-25T00:14:24.882Z,2.50
2019-01-25T00:15:24.854Z,2.80
2019-01-25T00:16:24.880Z,2.70
2019-01-25T00:17:24.869Z,2.80
2019-01-25T00:18:24.820Z,2.80
2019-01-25T00:19:24.828Z,3.10
2019-01-25T00:20:25.801Z,3.20
2019-01-25T00:21:24.825Z,3.00
2019-01-25T00:22:24.788Z,2.70
2019-01-25T00:23:24.824Z,2.80
2019-01-25T00:24:24.801Z,2.80
2019-01-25T00:25:24.757Z,3.20
2019-01-25T00:26:24.748Z,2.90
2019-01-25T00:27:24.733Z,3.10
2019-01-25T00:28:24.724Z,3.20
2019-01-25T00:29:24.758Z,3.00
2019-01-25T00:30:24.703Z,2.80
2019-01-25T00:31:24.695Z,2.80
2019-01-25T00:32:24.679Z,2.90
2019-01-25T00:33:24.685Z,3.00
2019-01-25T00:34:24.667Z,3.10
2019-01-25T00:35:24.698Z,3.00
2019-01-25T00:36:24.728Z,3.20
2019-01-25T00:37:24.631Z,3.00
2019-01-25T00:38:24.625Z,3.00
2019-01-25T00:39:24.611Z,3.00
2019-01-25T00:40:24.658Z,3.00
2019-01-25T00:41:24.606Z,3.50
2019-01-25T00:42:24.597Z,3.10
2019-01-25T00:43:24.570Z,3.20
2019-01-25T00:44:24.564Z,2.90
2019-01-25T00:45:24.586Z,3.10
2019-01-25T00:46:24.594Z,3.00
2019-01-25T00:47:24.573Z,3.20
2019-01-25T00:48:24.526Z,3.00
2019-01-25T00:49:24.515Z,3.00
2019-01-25T00:50:24.578Z,3.00
2019-01-25T00:51:24.488Z,3.10
2019-01-25T00:52:24.484Z,3.20
2019-01-25T00:53:24.481Z,3.00
2019-01-25T00:54:24.498Z,3.10
2019-01-25T00:55:24.458Z,3.20
2019-01-25T00:56:24.501Z,3.40
2019-01-25T00:57:24.433Z,3.10
2019-01-25T00:58:24.428Z,3.60
2019-01-25T00:59:24.422Z,3.20
2019-01-25T01:00:24.402Z,2.80
2019-01-25T01:01:24.406Z,3.10
2019-01-25T01:02:24.426Z,2.90
2019-01-25T01:03:24.368Z,3.10
2019-01-25T01:04:24.364Z,3.10
2019-01-25T01:05:24.394Z,3.30
2019-01-25T01:06:24.353Z,3.20
2019-01-25T01:07:24.336Z,3.10
2019-01-25T01:08:24.370Z,3.20
2019-01-25T01:09:24.303Z,3.40
2019-01-25T01:10:24.312Z,3.50
2019-01-25T01:11:24.336Z,3.40
2019-01-25T01:12:24.281Z,3.00
2019-01-25T01:13:24.272Z,3.40
2019-01-25T01:14:24.260Z,3.20
2019-01-25T01:15:24.300Z,3.40
2019-01-25T01:16:24.239Z,3.00
2019-01-25T01:17:24.254Z,3.30
2019-01-25T01:18:24.227Z,3.10
2019-01-25T01:19:24.208Z,3.40
2019-01-25T01:20:24.198Z,3.60
2019-01-25T01:21:24.234Z,3.60
2019-01-25T01:22:24.181Z,3.70
2019-01-25T01:23:24.169Z,3.70
2019-01-25T01:24:24.155Z,3.40
2019-01-25T01:25:24.173Z,3.60
2019-01-25T01:26:24.158Z,3.90
2019-01-25T01:27:24.194Z,3.40
2019-01-25T01:28:24.125Z,3.60
2019-01-25T01:29:24.119Z,3.30
2019-01-25T01:30:24.144Z,3.50
2019-01-25T01:31:24.092Z,3.30
2019-01-25T01:32:24.076Z,3.50
2019-01-25T01:33:24.104Z,3.50
2019-01-25T01:34:24.054Z,3.50
2019-01-25T01:35:24.077Z,3.40
2019-01-25T01:36:24.086Z,3.40
2019-01-25T01:37:24.026Z,3.40
2019-01-25T01:38:24.073Z,3.10
2019-01-25T01:39:24.008Z,3.30
2019-01-25T01:40:24.761Z,3.30
2019-01-25T01:41:24.060Z,3.30
2019-01-25T01:42:23.979Z,3.30
2019-01-25T01:43:23.978Z,3.10
2019-01-25T01:44:23.975Z,3.30
2019-01-25T01:45:23.965Z,3.30
2019-01-25T01:46:23.944Z,3.30
2019-01-25T01:47:23.987Z,3.70
2019-01-25T01:48:23.923Z,4.10
2019-01-25T01:49:23.906Z,4.10
2019-01-25T01:50:23.950Z,4.10
2019-01-25T01:51:23.935Z,4.10
2019-01-25T01:52:23.878Z,3.60
2019-01-25T01:53:23.865Z,3.80
2019-01-25T01:54:23.860Z,4.10
2019-01-25T01:55:23.870Z,3.90
2019-01-25T01:56:23.833Z,3.80
2019-01-25T01:57:23.867Z,3.80
2019-01-25T01:58:23.808Z,4.20
2019-01-25T01:59:23.802Z,3.90
2019-01-25T02:00:23.791Z,3.60
2019-01-25T02:01:23.778Z,3.60
2019-01-25T02:02:23.797Z,3.90
2019-01-25T02:03:23.797Z,3.70
2019-01-25T02:04:23.749Z,3.80
2019-01-25T02:05:23.774Z,4.10
2019-01-25T02:06:23.727Z,3.70
2019-01-25T02:07:23.720Z,3.80
2019-01-25T02:08:23.715Z,3.90
2019-01-25T02:09:23.743Z,4.30
2019-01-25T02:10:29.217Z,4.00
2019-01-25T02:11:24.679Z,4.10
2019-01-25T02:12:23.670Z,3.90
2019-01-25T02:13:23.658Z,3.90
2019-01-25T02:14:23.687Z,3.80
2019-01-25T02:15:23.652Z,4.20
2019-01-25T02:16:23.626Z,3.90
2019-01-25T02:17:23.621Z,3.90
2019-01-25T02:18:23.616Z,3.90
2019-01-25T02:19:23.599Z,3.80
2019-01-25T02:20:23.651Z,3.80
2019-01-25T02:21:23.593Z,3.90
2019-01-25T02:22:23.571Z,4.00
2019-01-25T02:23:23.559Z,4.20
2019-01-25T02:24:23.551Z,4.20
2019-01-25T02:25:23.538Z,4.00
2019-01-25T02:26:23.576Z,3.80
2019-01-25T02:27:23.518Z,3.70
2019-01-25T02:28:23.511Z,3.60
2019-01-25T02:29:23.516Z,4.00
2019-01-25T02:30:23.497Z,3.70
2019-01-25T02:31:23.480Z,3.70
2019-01-25T02:32:23.507Z,4.00
2019-01-25T02:33:23.462Z,4.30
2019-01-25T02:34:23.463Z,4.20
2019-01-25T02:35:23.466Z,4.00
2019-01-25T02:36:23.433Z,4.10
2019-01-25T02:37:23.424Z,3.60
2019-01-25T02:38:23.454Z,3.90
2019-01-25T02:39:23.399Z,3.90
2019-01-25T02:40:23.389Z,4.00
2019-01-25T02:41:23.378Z,4.30
2019-01-25T02:42:23.380Z,4.30
2019-01-25T02:43:23.365Z,4.00
2019-01-25T02:44:23.388Z,3.90
2019-01-25T02:45:23.339Z,3.80
2019-01-25T02:46:23.331Z,3.90
2019-01-25T02:47:23.321Z,3.90
2019-01-25T02:48:23.324Z,4.30
2019-01-25T02:49:23.302Z,3.80
2019-01-25T02:50:23.329Z,3.60
2019-01-25T02:51:23.284Z,3.80
2019-01-25T02:52:23.267Z,3.80
2019-01-25T02:53:23.259Z,4.00
2019-01-25T02:54:23.307Z,4.00
2019-01-25T02:55:23.237Z,3.80
2019-01-25T02:56:23.232Z,3.80
2019-01-25T02:57:23.224Z,3.50
2019-01-25T02:58:23.209Z,3.50
2019-01-25T02:59:23.201Z,3.50
2019-01-25T03:00:23.227Z,3.60
2019-01-25T03:01:23.197Z,4.10
2019-01-25T03:02:23.169Z,3.80
2019-01-25T03:03:23.164Z,3.70
2019-01-25T03:04:23.148Z,3.50
2019-01-25T03:05:23.173Z,3.30
2019-01-25T03:06:23.129Z,4.00
2019-01-25T03:07:23.136Z,3.50
2019-01-25T03:08:23.134Z,3.70
2019-01-25T03:09:23.100Z,3.60
2019-01-25T03:10:28.480Z,3.80
2019-01-25T03:11:24.120Z,3.80
2019-01-25T03:12:23.069Z,3.50
2019-01-25T03:13:23.075Z,3.80
2019-01-25T03:14:23.048Z,4.00
2019-01-25T03:15:23.045Z,4.00
2019-01-25T03:16:23.036Z,3.90
2019-01-25T03:17:23.061Z,3.80
2019-01-25T03:18:23.009Z,3.60
2019-01-25T03:19:23.021Z,3.80
2019-01-25T03:20:22.993Z,3.70
2019-01-25T03:21:22.983Z,3.60
2019-01-25T03:22:22.973Z,3.60
2019-01-25T03:23:22.997Z,3.90
2019-01-25T03:24:22.946Z,3.90
2019-01-25T03:25:22.957Z,3.70
2019-01-25T03:26:22.930Z,3.90
2019-01-25T03:27:22.919Z,3.70
2019-01-25T03:28:22.906Z,3.40
2019-01-25T03:29:22.933Z,3.60
2019-01-25T03:30:22.938Z,3.50
2019-01-25T03:31:22.902Z,3.60
2019-01-25T03:32:22.877Z,3.90
2019-01-25T03:33:22.869Z,3.50
2019-01-25T03:34:22.848Z,3.80
2019-01-25T03:35:22.838Z,3.30
2019-01-25T03:36:22.870Z,3.50
2019-01-25T03:37:22.836Z,3.90
2019-01-25T03:38:22.811Z,3.60
2019-01-25T03:39:22.801Z,3.80
2019-01-25T03:40:22.791Z,3.50
2019-01-25T03:41:22.776Z,3.70
2019-01-25T03:42:22.819Z,3.40
2019-01-25T03:43:22.756Z,3.70
2019-01-25T03:44:22.760Z,3.80
2019-01-25T03:45:22.759Z,3.60
2019-01-25T03:46:22.726Z,3.80
2019-01-25T03:47:22.719Z,3.80
2019-01-25T03:48:22.755Z,3.60
2019-01-25T03:49:22.705Z,3.40
2019-01-25T03:50:22.699Z,3.50
2019-01-25T03:51:22.679Z,3.50
2019-01-25T03:52:22.706Z,3.40
2019-01-25T03:53:22.657Z,3.50
2019-01-25T03:54:22.646Z,3.20
2019-01-25T03:55:22.644Z,3.50
2019-01-25T03:56:22.628Z,3.10
2019-01-25T03:57:22.629Z,3.40
2019-01-25T03:58:22.647Z,3.40
2019-01-25T03:59:22.600Z,3.50
2019-01-25T04:00:22.586Z,3.60
2019-01-25T04:01:22.581Z,3.80
2019-01-25T04:02:22.567Z,3.90
2019-01-25T04:03:22.568Z,3.70
2019-01-25T04:04:22.584Z,4.20
2019-01-25T04:05:22.538Z,4.60
2019-01-25T04:06:22.529Z,4.00
2019-01-25T04:07:22.520Z,4.40
2019-01-25T04:08:22.543Z,4.30
2019-01-25T04:09:22.559Z,4.40
2019-01-25T04:10:22.487Z,4.60
2019-01-25T04:11:22.477Z,4.40
2019-01-25T04:12:22.469Z,4.60
2019-01-25T04:13:22.456Z,4.40
2019-01-25T04:14:22.446Z,4.80
2019-01-25T04:15:22.502Z,4.30
2019-01-25T04:16:22.427Z,4.00
2019-01-25T04:17:22.427Z,4.80
2019-01-25T04:18:22.410Z,4.50
2019-01-25T04:19:22.401Z,4.30
2019-01-25T04:20:22.391Z,4.20
2019-01-25T04:21:22.426Z,4.00
2019-01-25T04:22:22.369Z,3.90
2019-01-25T04:23:22.359Z,4.20
2019-01-25T04:24:22.349Z,4.00
2019-01-25T04:25:22.375Z,4.00
2019-01-25T04:26:22.334Z,4.20
2019-01-25T04:27:22.371Z,4.20
2019-01-25T04:28:22.316Z,3.90
2019-01-25T04:29:22.304Z,4.00
2019-01-25T04:30:22.293Z,3.70
2019-01-25T04:31:22.281Z,4.10
2019-01-25T04:32:22.269Z,3.90
2019-01-25T04:33:22.298Z,4.00
2019-01-25T04:34:22.259Z,4.20
2019-01-25T04:35:22.239Z,3.60
2019-01-25T04:36:22.233Z,3.80
2019-01-25T04:37:22.216Z,3.90
2019-01-25T04:38:22.209Z,3.80
2019-01-25T04:39:22.245Z,3.80
2019-01-25T04:40:22.216Z,3.60
2019-01-25T04:41:22.196Z,3.70
2019-01-25T04:42:22.172Z,3.90
2019-01-25T04:43:22.164Z,4.20
2019-01-25T04:44:22.153Z,3.90
2019-01-25T04:45:22.178Z,4.00
2019-01-25T04:46:22.140Z,4.00
2019-01-25T04:47:22.136Z,3.70
2019-01-25T04:48:22.110Z,3.70
2019-01-25T04:49:22.733Z,4.30
2019-01-25T04:50:22.131Z,4.00
2019-01-25T04:51:22.077Z,4.00
2019-01-25T04:52:22.085Z,4.00
2019-01-25T04:53:22.060Z,4.10
2019-01-25T04:54:22.050Z,4.20
2019-01-25T04:55:22.070Z,4.10
2019-01-25T04:56:22.072Z,4.00
2019-01-25T04:57:22.026Z,4.30
2019-01-25T04:58:22.008Z,4.20
2019-01-25T04:59:22.008Z,4.20
2019-01-25T05:00:22.014Z,4.40
2019-01-25T05:01:22.019Z,3.70
2019-01-25T05:02:22.017Z,4.40
2019-01-25T05:03:21.963Z,4.70
2019-01-25T05:04:21.950Z,4.00
2019-01-25T05:05:21.957Z,3.90
2019-01-25T05:06:21.952Z,3.90
2019-01-25T05:07:21.961Z,4.10
2019-01-25T05:08:21.919Z,4.00
2019-01-25T05:09:21.902Z,4.20
2019-01-25T05:10:21.887Z,4.20
2019-01-25T05:11:21.883Z,4.20
2019-01-25T05:12:21.869Z,4.30
2019-01-25T05:13:21.907Z,4.30
2019-01-25T05:14:21.859Z,3.80
2019-01-25T05:15:21.840Z,4.20
2019-01-25T05:16:21.841Z,3.90
2019-01-25T05:17:21.837Z,4.40
2019-01-25T05:18:21.814Z,4.20
2019-01-25T05:19:21.844Z,4.00
2019-01-25T05:20:21.799Z,4.30
2019-01-25T05:21:21.781Z,4.30
2019-01-25T05:22:21.825Z,4.40
2019-01-25T05:23:21.763Z,4.20
2019-01-25T05:24:21.761Z,4.60
2019-01-25T05:25:21.740Z,4.20
2019-01-25T05:26:21.735Z,4.50
2019-01-25T05:27:21.756Z,4.30
2019-01-25T05:28:21.718Z,4.60
2019-01-25T05:29:21.699Z,4.50
2019-01-25T05:30:21.691Z,3.90
2019-01-25T05:31:21.688Z,4.20
2019-01-25T05:32:21.673Z,4.00
2019-01-25T05:33:21.692Z,4.40
2019-01-25T05:34:21.666Z,4.20
2019-01-25T05:35:21.648Z,4.20
2019-01-25T05:36:21.625Z,4.00
2019-01-25T05:37:21.655Z,4.40
2019-01-25T05:38:21.616Z,4.10
2019-01-25T05:39:21.639Z,4.10
2019-01-25T05:40:21.588Z,4.30
2019-01-25T05:41:28.217Z,4.70
2019-01-25T05:42:22.613Z,6.50
2019-01-25T05:43:21.561Z,6.10
2019-01-25T05:44:21.549Z,4.60
2019-01-25T05:45:21.542Z,4.40
2019-01-25T05:46:21.530Z,4.50
2019-01-25T05:47:21.520Z,4.10
2019-01-25T05:48:21.565Z,4.90
2019-01-25T05:49:21.501Z,4.90
2019-01-25T05:50:21.487Z,4.70
2019-01-25T05:51:21.480Z,4.30
2019-01-25T05:52:21.476Z,4.20
2019-01-25T05:53:21.461Z,4.20
2019-01-25T05:54:21.515Z,4.60
2019-01-25T05:55:21.447Z,4.70
2019-01-25T05:56:21.439Z,4.50
2019-01-25T05:57:21.421Z,4.60
2019-01-25T05:58:21.447Z,4.60
2019-01-25T05:59:21.402Z,4.60
2019-01-25T06:00:21.391Z,4.50
2019-01-25T06:01:21.390Z,4.20
2019-01-25T06:02:21.376Z,4.30
2019-01-25T06:03:21.394Z,4.50
2019-01-25T06:04:21.356Z,4.70
2019-01-25T06:05:21.341Z,4.30
2019-01-25T06:06:21.345Z,4.60
2019-01-25T06:07:21.318Z,4.60
2019-01-25T06:08:21.330Z,4.40
2019-01-25T06:09:21.334Z,4.60
2019-01-25T06:10:21.329Z,4.20
2019-01-25T06:11:21.281Z,4.20
2019-01-25T06:12:21.268Z,4.00
2019-01-25T06:13:21.259Z,4.10
2019-01-25T06:14:21.261Z,4.40
2019-01-25T06:15:21.240Z,4.50
2019-01-25T06:16:21.268Z,4.10
2019-01-25T06:17:21.220Z,4.80
2019-01-25T06:18:21.261Z,4.60
2019-01-25T06:19:21.206Z,4.70
2019-01-25T06:20:21.201Z,4.40
2019-01-25T06:21:21.228Z,4.10
2019-01-25T06:22:21.169Z,4.10
2019-01-25T06:23:21.163Z,3.90
2019-01-25T06:24:21.150Z,4.60
2019-01-25T06:25:21.184Z,4.10
2019-01-25T06:26:21.135Z,4.60
2019-01-25T06:27:21.128Z,5.10
2019-01-25T06:28:21.114Z,4.60
2019-01-25T06:29:21.108Z,4.00
2019-01-25T06:30:21.095Z,4.50
2019-01-25T06:31:21.120Z,4.30
2019-01-25T06:32:21.069Z,4.40
2019-01-25T06:33:21.071Z,4.30
2019-01-25T06:34:21.058Z,4.30
2019-01-25T06:35:21.045Z,4.70
2019-01-25T06:36:21.043Z,4.20
2019-01-25T06:37:21.076Z,4.30
2019-01-25T06:38:21.019Z,4.40
2019-01-25T06:39:21.006Z,4.40
2019-01-25T06:40:20.995Z,4.50
2019-01-25T06:41:20.984Z,4.60
2019-01-25T06:42:20.978Z,4.40
2019-01-25T06:43:20.998Z,4.20
2019-01-25T06:44:20.955Z,4.40
2019-01-25T06:45:20.966Z,4.50
2019-01-25T06:46:20.933Z,4.20
2019-01-25T06:47:20.925Z,4.80
2019-01-25T06:48:20.938Z,4.70
2019-01-25T06:49:20.945Z,4.40
2019-01-25T06:50:20.893Z,4.70
2019-01-25T06:51:20.883Z,5.00
2019-01-25T06:52:20.878Z,4.40
2019-01-25T06:53:20.868Z,4.80
2019-01-25T06:54:20.874Z,5.00
2019-01-25T06:55:20.884Z,5.70
2019-01-25T06:56:20.838Z,24.60
2019-01-25T06:57:20.826Z,26.00
2019-01-25T06:58:20.816Z,22.00
2019-01-25T06:59:20.806Z,10.70
2019-01-25T07:00:20.831Z,8.20
2019-01-25T07:01:20.784Z,6.60
2019-01-25T07:02:20.790Z,5.10
2019-01-25T07:03:20.761Z,4.60
2019-01-25T07:04:20.754Z,4.30
2019-01-25T07:05:20.742Z,4.70
2019-01-25T07:06:20.779Z,4.60
2019-01-25T07:07:20.722Z,4.60
2019-01-25T07:08:20.723Z,5.00
2019-01-25T07:09:20.712Z,4.60
2019-01-25T07:10:20.696Z,5.50
2019-01-25T07:11:20.687Z,4.60
2019-01-25T07:12:20.710Z,4.60
2019-01-25T07:13:20.670Z,4.90
2019-01-25T07:14:20.669Z,4.30
2019-01-25T07:15:20.642Z,4.60
2019-01-25T07:16:20.675Z,4.60
2019-01-25T07:17:20.623Z,4.40
2019-01-25T07:18:20.618Z,5.10
2019-01-25T07:19:20.604Z,4.70
2019-01-25T07:20:20.618Z,4.50
2019-01-25T07:21:20.587Z,4.90
2019-01-25T07:22:20.613Z,4.60
2019-01-25T07:23:20.569Z,4.30
2019-01-25T07:24:20.559Z,4.60
2019-01-25T07:25:20.542Z,4.70
2019-01-25T07:26:20.547Z,4.60
2019-01-25T07:27:20.521Z,4.50
2019-01-25T07:28:20.558Z,4.10
2019-01-25T07:29:20.553Z,4.20
2019-01-25T07:30:20.515Z,4.40
2019-01-25T07:31:20.519Z,4.50
2019-01-25T07:32:20.493Z,4.70
2019-01-25T07:33:20.552Z,4.30
2019-01-25T07:34:20.505Z,4.40
2019-01-25T07:35:21.061Z,4.40
2019-01-25T07:36:20.438Z,4.40
2019-01-25T07:37:20.427Z,4.40
2019-01-25T07:38:20.414Z,4.00
2019-01-25T07:39:20.403Z,4.20
2019-01-25T07:40:20.472Z,4.50
2019-01-25T07:41:20.410Z,4.30
2019-01-25T07:42:20.374Z,4.50
2019-01-25T07:43:20.394Z,5.00
2019-01-25T07:44:20.595Z,4.30
2019-01-25T07:45:20.361Z,4.00
2019-01-25T07:46:20.396Z,3.80
2019-01-25T07:47:20.388Z,4.30
2019-01-25T07:48:20.359Z,4.50
2019-01-25T07:49:20.318Z,4.20
2019-01-25T07:50:20.298Z,4.20
2019-01-25T07:51:20.304Z,4.00
2019-01-25T07:52:20.313Z,4.60
2019-01-25T07:53:22.142Z,4.00
2019-01-25T07:54:20.260Z,4.40
2019-01-25T07:55:20.264Z,4.60
2019-01-25T07:56:20.311Z,4.90
2019-01-25T07:57:20.233Z,5.20
2019-01-25T07:58:20.216Z,5.30
2019-01-25T07:59:20.229Z,5.00
2019-01-25T08:00:20.201Z,4.50
2019-01-25T08:01:20.224Z,4.70
2019-01-25T08:02:20.444Z,5.00
2019-01-25T08:03:20.160Z,5.00
2019-01-25T08:04:20.189Z,4.70
2019-01-25T08:05:20.155Z,4.30
2019-01-25T08:06:20.156Z,4.60
2019-01-25T08:07:20.155Z,5.10
2019-01-25T08:08:20.157Z,5.20
2019-01-25T08:09:20.108Z,5.00
2019-01-25T08:10:20.094Z,4.80
2019-01-25T08:11:20.093Z,4.60
2019-01-25T08:12:20.077Z,4.20
2019-01-25T08:13:20.087Z,4.10
2019-01-25T08:14:20.130Z,4.50
2019-01-25T08:15:20.059Z,4.40
2019-01-25T08:16:20.035Z,5.40
2019-01-25T08:17:20.043Z,5.20
2019-01-25T08:18:20.011Z,5.00
2019-01-25T08:19:20.006Z,4.20
2019-01-25T08:20:20.046Z,4.50
2019-01-25T08:21:19.979Z,4.40
2019-01-25T08:22:19.978Z,4.40
2019-01-25T08:23:20.003Z,4.40
2019-01-25T08:24:19.989Z,3.70
2019-01-25T08:25:19.979Z,4.40
2019-01-25T08:26:19.931Z,4.40
2019-01-25T08:27:19.986Z,4.20
2019-01-25T08:28:19.917Z,4.10
2019-01-25T08:29:27.682Z,4.40
2019-01-25T08:30:20.941Z,4.10
2019-01-25T08:31:19.881Z,4.20
2019-01-25T08:32:19.923Z,4.80
2019-01-25T08:33:19.890Z,5.00
2019-01-25T08:34:19.872Z,4.60
2019-01-25T08:35:19.888Z,4.90
2019-01-25T08:36:19.830Z,4.70
2019-01-25T08:37:19.820Z,5.00
2019-01-25T08:38:19.810Z,4.40
2019-01-25T08:39:19.820Z,4.80
2019-01-25T08:40:19.917Z,4.50
2019-01-25T08:41:19.815Z,4.40
2019-01-25T08:42:19.818Z,4.30
2019-01-25T08:43:19.768Z,4.40
2019-01-25T08:44:19.784Z,4.20
2019-01-25T08:45:19.823Z,4.00
2019-01-25T08:46:19.733Z,4.30
2019-01-25T08:47:19.731Z,4.00
2019-01-25T08:48:19.746Z,4.30
2019-01-25T08:49:19.724Z,4.70
2019-01-25T08:50:19.727Z,4.30
2019-01-25T08:51:19.704Z,4.60
2019-01-25T08:52:19.714Z,4.60
2019-01-25T08:53:19.691Z,4.20
2019-01-25T08:54:19.755Z,4.00
2019-01-25T08:55:21.388Z,4.10
2019-01-25T08:56:19.677Z,4.10
2019-01-25T08:57:19.621Z,4.10
2019-01-25T08:58:19.622Z,3.90
2019-01-25T08:59:19.705Z,4.30
2019-01-25T09:00:19.601Z,4.00
2019-01-25T09:01:19.581Z,3.90
2019-01-25T09:02:19.608Z,4.10
2019-01-25T09:03:19.566Z,4.10
2019-01-25T09:04:19.551Z,3.80
2019-01-25T09:05:19.554Z,5.00
2019-01-25T09:06:19.526Z,7.20
2019-01-25T09:07:19.517Z,6.10
2019-01-25T09:08:19.554Z,5.20
2019-01-25T09:09:19.496Z,4.80
2019-01-25T09:10:19.487Z,15.00
2019-01-25T09:11:19.497Z,16.60
2019-01-25T09:12:23.443Z,20.40
2019-01-25T09:13:19.501Z,24.70
2019-01-25T09:14:19.494Z,12.80
2019-01-25T09:15:19.433Z,5.90
2019-01-25T09:16:19.433Z,6.50
2019-01-25T09:17:19.436Z,17.80
2019-01-25T09:18:19.410Z,21.80
2019-01-25T09:19:19.409Z,12.00
2019-01-25T09:20:19.436Z,4.30
2019-01-25T09:21:19.380Z,4.40
2019-01-25T09:22:19.366Z,4.90
2019-01-25T09:23:19.360Z,4.10
2019-01-25T09:24:19.368Z,4.10
2019-01-25T09:25:19.336Z,4.30
2019-01-25T09:26:19.368Z,4.10
2019-01-25T09:27:19.321Z,3.90
2019-01-25T09:28:19.306Z,4.00
2019-01-25T09:29:19.296Z,3.80
2019-01-25T09:30:19.317Z,3.80
2019-01-25T09:31:19.293Z,4.50
2019-01-25T09:32:19.266Z,3.80
2019-01-25T09:33:19.254Z,4.20
2019-01-25T09:34:19.250Z,4.40
2019-01-25T09:35:19.236Z,4.50
2019-01-25T09:36:19.266Z,5.30
2019-01-25T09:37:19.235Z,7.00
2019-01-25T09:38:19.207Z,6.50
2019-01-25T09:39:19.192Z,8.10
2019-01-25T09:40:19.185Z,5.80
2019-01-25T09:41:19.179Z,4.70
2019-01-25T09:42:19.205Z,4.60
2019-01-25T09:43:19.193Z,4.20
2019-01-25T09:44:19.150Z,4.40
2019-01-25T09:45:19.144Z,4.30
2019-01-25T09:46:19.118Z,4.20
2019-01-25T09:47:19.109Z,3.80
2019-01-25T09:48:19.100Z,4.30
2019-01-25T09:49:19.132Z,4.50
2019-01-25T09:50:19.076Z,3.90
2019-01-25T09:51:19.081Z,4.30
2019-01-25T09:52:19.053Z,4.20
2019-01-25T09:53:19.051Z,4.10
2019-01-25T09:54:19.035Z,4.20
2019-01-25T09:55:19.068Z,4.50
2019-01-25T09:56:19.012Z,4.60
2019-01-25T09:57:19.006Z,4.50
2019-01-25T09:58:19.010Z,4.50
2019-01-25T09:59:18.983Z,4.20
2019-01-25T10:00:18.974Z,4.20
2019-01-25T10:01:19.008Z,4.70
2019-01-25T10:02:18.953Z,4.40
2019-01-25T10:03:18.944Z,5.00
2019-01-25T10:04:18.947Z,4.40
2019-01-25T10:05:18.919Z,4.40
2019-01-25T10:06:18.909Z,4.80
2019-01-25T10:07:18.944Z,4.00
2019-01-25T10:08:18.887Z,4.40
2019-01-25T10:09:18.881Z,4.50
2019-01-25T10:10:18.911Z,4.50
2019-01-25T10:11:18.857Z,4.40
2019-01-25T10:12:18.852Z,4.20
2019-01-25T10:13:18.873Z,4.30
2019-01-25T10:14:18.826Z,4.30
2019-01-25T10:15:18.821Z,4.20
2019-01-25T10:16:18.807Z,4.30
2019-01-25T10:17:18.846Z,4.40
2019-01-25T10:18:18.799Z,4.20
2019-01-25T10:19:18.773Z,4.20
2019-01-25T10:20:18.764Z,4.20
2019-01-25T10:21:18.755Z,4.30
2019-01-25T10:22:18.807Z,4.30
2019-01-25T10:23:18.730Z,3.80
2019-01-25T10:24:18.721Z,4.00
2019-01-25T10:25:18.726Z,3.60
2019-01-25T10:26:18.701Z,3.60
2019-01-25T10:27:18.696Z,3.80
2019-01-25T10:28:18.714Z,3.90
2019-01-25T10:29:18.684Z,4.00
2019-01-25T10:30:18.660Z,4.20
2019-01-25T10:31:18.661Z,4.20
2019-01-25T10:32:18.642Z,3.90
2019-01-25T10:33:18.625Z,4.20
2019-01-25T10:34:18.674Z,4.20
2019-01-25T10:35:18.606Z,4.60
2019-01-25T10:36:18.595Z,4.80
2019-01-25T10:37:18.606Z,4.70
2019-01-25T10:38:18.575Z,4.70
2019-01-25T10:39:18.564Z,5.60
2019-01-25T10:40:18.587Z,5.50
2019-01-25T10:41:18.549Z,5.90
2019-01-25T10:42:18.534Z,5.90
2019-01-25T10:43:18.542Z,5.60
2019-01-25T10:44:18.511Z,5.40
2019-01-25T10:45:18.500Z,5.70
2019-01-25T10:46:18.519Z,5.90
2019-01-25T10:47:18.482Z,5.90
2019-01-25T10:48:18.501Z,6.20
2019-01-25T10:49:18.483Z,6.00
2019-01-25T10:50:18.447Z,5.80
2019-01-25T10:51:18.437Z,6.10
2019-01-25T10:52:18.425Z,6.20
2019-01-25T10:53:18.448Z,5.90
2019-01-25T10:54:18.407Z,5.80
2019-01-25T10:55:18.408Z,5.80
2019-01-25T10:56:18.392Z,5.80
2019-01-25T10:57:18.413Z,5.90
2019-01-25T10:58:18.362Z,5.20
2019-01-25T10:59:18.359Z,6.30
2019-01-25T11:00:18.340Z,6.70
2019-01-25T11:01:18.350Z,6.20
2019-01-25T11:02:18.318Z,5.70
2019-01-25T11:03:18.352Z,6.10
2019-01-25T11:04:18.298Z,6.20
2019-01-25T11:05:18.285Z,6.30
2019-01-25T11:06:18.276Z,6.70
2019-01-25T11:07:18.279Z,6.20
2019-01-25T11:08:18.259Z,6.50
2019-01-25T11:09:19.951Z,6.10
2019-01-25T11:10:18.238Z,6.10
2019-01-25T11:11:18.236Z,6.60
2019-01-25T11:12:18.215Z,5.60
2019-01-25T11:13:18.200Z,6.40
2019-01-25T11:14:18.215Z,5.60
2019-01-25T11:15:18.222Z,6.10
2019-01-25T11:16:18.174Z,5.90
2019-01-25T11:17:18.164Z,5.70
2019-01-25T11:18:18.146Z,6.00
2019-01-25T11:19:18.138Z,6.00
2019-01-25T11:20:18.149Z,5.70
2019-01-25T11:21:18.209Z,6.10
2019-01-25T11:22:18.105Z,6.50
2019-01-25T11:23:18.098Z,6.10
2019-01-25T11:24:18.092Z,6.10
2019-01-25T11:25:18.453Z,6.30
2019-01-25T11:26:18.074Z,6.30
2019-01-25T11:27:18.057Z,5.70
2019-01-25T11:28:18.111Z,6.10
2019-01-25T11:29:18.040Z,5.90
2019-01-25T11:30:18.035Z,6.40
2019-01-25T11:31:18.054Z,5.80
2019-01-25T11:32:18.015Z,6.20
2019-01-25T11:33:18.014Z,6.00
2019-01-25T11:34:17.984Z,6.40
2019-01-25T11:35:17.981Z,5.80
2019-01-25T11:36:17.967Z,5.90
2019-01-25T11:37:18.036Z,6.20
2019-01-25T11:38:17.956Z,6.50
2019-01-25T11:39:17.937Z,6.40
2019-01-25T11:40:17.943Z,6.30
2019-01-25T11:41:17.911Z,6.00
2019-01-25T11:42:17.906Z,6.20
2019-01-25T11:43:17.941Z,6.20
2019-01-25T11:44:17.886Z,6.00
2019-01-25T11:45:17.869Z,5.50
2019-01-25T11:46:17.857Z,6.10
2019-01-25T11:47:17.857Z,6.30
2019-01-25T11:48:17.834Z,6.20
2019-01-25T11:49:17.866Z,6.50
2019-01-25T11:50:17.814Z,6.20
2019-01-25T11:51:17.804Z,6.10
2019-01-25T11:52:17.803Z,6.40
2019-01-25T11:53:17.782Z,5.80
2019-01-25T11:54:17.944Z,6.00
2019-01-25T11:55:17.803Z,6.50
2019-01-25T11:56:17.753Z,6.40
2019-01-25T11:57:17.768Z,6.30
2019-01-25T11:58:17.734Z,6.60
2019-01-25T11:59:17.758Z,6.90
2019-01-25T12:00:17.709Z,7.10
2019-01-25T12:01:17.701Z,6.80
2019-01-25T12:02:21.025Z,6.50
2019-01-25T12:03:17.714Z,6.20
2019-01-25T12:04:17.678Z,6.40
2019-01-25T12:05:17.700Z,7.60
2019-01-25T12:06:17.645Z,7.70
2019-01-25T12:07:17.633Z,8.20
2019-01-25T12:08:17.626Z,7.70
2019-01-25T12:09:17.617Z,7.10
2019-01-25T12:10:17.612Z,7.10
2019-01-25T12:11:17.643Z,7.40
2019-01-25T12:12:17.585Z,7.00
2019-01-25T12:13:17.570Z,7.00
2019-01-25T12:14:17.559Z,7.40
2019-01-25T12:15:17.546Z,7.80
2019-01-25T12:16:17.559Z,8.10
2019-01-25T12:17:17.568Z,7.50
2019-01-25T12:18:17.624Z,6.90
2019-01-25T12:19:17.511Z,7.90
2019-01-25T12:20:17.511Z,7.80
2019-01-25T12:21:17.511Z,8.00
2019-01-25T12:22:17.482Z,7.80
2019-01-25T12:23:17.521Z,7.40
2019-01-25T12:24:17.456Z,7.70
2019-01-25T12:25:17.463Z,7.90
2019-01-25T12:26:17.431Z,8.20
2019-01-25T12:27:17.430Z,8.30
2019-01-25T12:28:17.417Z,7.70
2019-01-25T12:29:17.450Z,8.60
2019-01-25T12:30:17.390Z,8.30
2019-01-25T12:31:17.395Z,8.30
2019-01-25T12:32:17.371Z,8.80
2019-01-25T12:33:17.365Z,9.20
2019-01-25T12:34:17.352Z,8.80
2019-01-25T12:35:17.403Z,9.10
2019-01-25T12:36:17.328Z,9.10
2019-01-25T12:37:17.319Z,8.60
2019-01-25T12:38:17.310Z,8.40
2019-01-25T12:39:17.297Z,9.00
2019-01-25T12:40:17.285Z,9.20
2019-01-25T12:41:17.315Z,9.10
2019-01-25T12:42:17.305Z,9.00
2019-01-25T12:43:23.873Z,7.80
2019-01-25T12:44:18.260Z,8.10
2019-01-25T12:45:17.247Z,8.30
2019-01-25T12:46:17.236Z,8.30
2019-01-25T12:47:17.227Z,8.50
2019-01-25T12:48:17.236Z,8.90
2019-01-25T12:49:17.224Z,8.40
2019-01-25T12:50:17.193Z,8.30
2019-01-25T12:51:17.169Z,8.30
2019-01-25T12:52:17.161Z,7.70
2019-01-25T12:53:17.156Z,8.40
2019-01-25T12:54:17.179Z,8.50
2019-01-25T12:55:17.142Z,8.90
2019-01-25T12:56:17.124Z,8.70
2019-01-25T12:57:17.112Z,8.80
2019-01-25T12:58:17.100Z,8.60
2019-01-25T12:59:17.086Z,8.70
2019-01-25T13:00:17.110Z,8.70
2019-01-25T13:01:17.089Z,8.10
2019-01-25T13:02:17.059Z,8.10
2019-01-25T13:03:17.052Z,8.40
2019-01-25T13:04:17.042Z,8.50
2019-01-25T13:05:17.019Z,8.80
2019-01-25T13:06:17.055Z,8.60
2019-01-25T13:07:17.001Z,8.50
2019-01-25T13:08:16.993Z,8.20
2019-01-25T13:09:16.984Z,8.10
2019-01-25T13:10:16.972Z,8.50
2019-01-25T13:11:16.959Z,7.70
2019-01-25T13:12:16.994Z,8.10
2019-01-25T13:13:16.953Z,8.70
2019-01-25T13:14:16.926Z,8.00
2019-01-25T13:15:16.922Z,8.60
2019-01-25T13:16:16.917Z,9.00
2019-01-25T13:17:16.899Z,8.00
2019-01-25T13:18:16.939Z,8.00